sensor_id;sensor_type;location;lat;lon;timestamp;temperature;humidity
7016;DHT22;3548;48.402;9.990;2023-02-11T00:01:46;-1.30;99.90
7016;DHT22;3548;48.402;9.990;2023-02-11T00:04:11;-1.40;99.90
7016;DHT22;3548;48.402;9.990;2023-02-11T00:06:37;-1.40;99.90
7016;DHT22;3548;48.402;9.990;2023-02-11T00:09:03;-1.50;99.90
7016;DHT22;3548;48.402;9.990;2023-02-11T00:11:29;-1.50;99.90
7016;DHT22;3548;48.402;9.990;2023-02-11T00:14:00;-1.50;99.90
7016;DHT22;3548;48.402;9.990;2023-02-11T00:16:27;-1.50;99.90
7016;DHT22;3548;48.402;9.990;2023-02-11T00:18:53;-1.60;99.90
7016;DHT22;3548;48.402;9.990;2023-02-11T00:21:24;-1.60;99.90
7016;DHT22;3548;48.402;9.990;2023-02-11T00:23:51;-1.60;99.90
7016;DHT22;3548;48.402;9.990;2023-02-11T00:26:23;-1.60;99.90
7016;DHT22;3548;48.402;9.990;2023-02-11T00:28:50;-1.60;99.90
7016;DHT22;3548;48.402;9.990;2023-02-11T00:31:18;-1.60;99.90
7016;DHT22;3548;48.402;9.990;2023-02-11T00:33:44;-1.60;99.90
7016;DHT22;3548;48.402;9.990;2023-02-11T00:36:16;-1.70;99.90
7016;DHT22;3548;48.402;9.990;2023-02-11T00:38:43;-1.80;99.90
7016;DHT22;3548;48.402;9.990;2023-02-11T00:41:09;-1.80;99.90
7016;DHT22;3548;48.402;9.990;2023-02-11T00:43:35;-1.80;99.90
7016;DHT22;3548;48.402;9.990;2023-02-11T00:46:00;-1.90;99.90
7016;DHT22;3548;48.402;9.990;2023-02-11T00:48:26;-1.90;99.90
7016;DHT22;3548;48.402;9.990;2023-02-11T00:50:51;-1.90;99.90
7016;DHT22;3548;48.402;9.990;2023-02-11T00:53:17;-1.90;99.90
7016;DHT22;3548;48.402;9.990;2023-02-11T00:55:42;-1.90;99.90
7016;DHT22;3548;48.402;9.990;2023-02-11T00:58:08;-1.90;99.90
7016;DHT22;3548;48.402;9.990;2023-02-11T01:00:33;-1.90;99.90
7016;DHT22;3548;48.402;9.990;2023-02-11T01:02:59;-1.90;99.90
7016;DHT22;3548;48.402;9.990;2023-02-11T01:05:24;-1.90;99.90
7016;DHT22;3548;48.402;9.990;2023-02-11T01:07:50;-1.90;99.90
7016;DHT22;3548;48.402;9.990;2023-02-11T01:10:15;-1.90;99.90
7016;DHT22;3548;48.402;9.990;2023-02-11T01:12:41;-1.90;99.90
7016;DHT22;3548;48.402;9.990;2023-02-11T01:15:08;-1.90;99.90
7016;DHT22;3548;48.402;9.990;2023-02-11T01:17:36;-1.90;99.90
7016;DHT22;3548;48.402;9.990;2023-02-11T01:20:06;-1.90;99.90
7016;DHT22;3548;48.402;9.990;2023-02-11T01:22:32;-2.00;99.90
7016;DHT22;3548;48.402;9.990;2023-02-11T01:24:59;-1.90;99.90
7016;DHT22;3548;48.402;9.990;2023-02-11T01:27:25;-1.90;99.90
7016;DHT22;3548;48.402;9.990;2023-02-11T01:29:50;-1.90;99.90
7016;DHT22;3548;48.402;9.990;2023-02-11T01:32:16;-1.90;99.90
7016;DHT22;3548;48.402;9.990;2023-02-11T01:34:41;-1.90;99.90
7016;DHT22;3548;48.402;9.990;2023-02-11T01:37:07;-1.90;99.90
7016;DHT22;3548;48.402;9.990;2023-02-11T01:39:33;-1.90;99.90
7016;DHT22;3548;48.402;9.990;2023-02-11T01:41:59;-1.90;99.90
7016;DHT22;3548;48.402;9.990;2023-02-11T01:46:54;-1.90;99.90
7016;DHT22;3548;48.402;9.990;2023-02-11T01:49:24;-1.90;99.90
7016;DHT22;3548;48.402;9.990;2023-02-11T01:52:04;-1.90;99.90
7016;DHT22;3548;48.402;9.990;2023-02-11T01:54:41;-1.90;99.90
7016;DHT22;3548;48.402;9.990;2023-02-11T01:57:28;-1.90;99.90
7016;DHT22;3548;48.402;9.990;2023-02-11T02:00:20;-1.90;99.90
7016;DHT22;3548;48.402;9.990;2023-02-11T02:03:05;-2.10;99.90
7016;DHT22;3548;48.402;9.990;2023-02-11T02:05:50;-2.20;99.90
7016;DHT22;3548;48.402;9.990;2023-02-11T02:08:26;-2.30;99.90
7016;DHT22;3548;48.402;9.990;2023-02-11T02:10:55;-2.30;99.90
7016;DHT22;3548;48.402;9.990;2023-02-11T02:13:23;-2.40;99.90
7016;DHT22;3548;48.402;9.990;2023-02-11T02:15:56;-2.30;99.90
7016;DHT22;3548;48.402;9.990;2023-02-11T02:40:30;-2.40;99.90
7016;DHT22;3548;48.402;9.990;2023-02-11T02:42:57;-2.40;99.90
7016;DHT22;3548;48.402;9.990;2023-02-11T02:45:24;-2.50;99.90
7016;DHT22;3548;48.402;9.990;2023-02-11T02:47:49;-2.50;99.90
7016;DHT22;3548;48.402;9.990;2023-02-11T02:50:18;-2.50;99.90
7016;DHT22;3548;48.402;9.990;2023-02-11T02:55:23;-2.50;99.90
7016;DHT22;3548;48.402;9.990;2023-02-11T02:58:06;-2.40;99.90
7016;DHT22;3548;48.402;9.990;2023-02-11T03:01:02;-2.40;99.90
7016;DHT22;3548;48.402;9.990;2023-02-11T03:04:20;-2.40;99.90
7016;DHT22;3548;48.402;9.990;2023-02-11T03:09:34;-2.30;99.90
7016;DHT22;3548;48.402;9.990;2023-02-11T03:12:03;-2.30;99.90
7016;DHT22;3548;48.402;9.990;2023-02-11T03:14:31;-2.40;99.90
7016;DHT22;3548;48.402;9.990;2023-02-11T03:17:00;-2.40;99.90
7016;DHT22;3548;48.402;9.990;2023-02-11T03:19:36;-2.40;99.90
7016;DHT22;3548;48.402;9.990;2023-02-11T03:22:16;-2.40;99.90
7016;DHT22;3548;48.402;9.990;2023-02-11T03:24:44;-2.50;99.90
7016;DHT22;3548;48.402;9.990;2023-02-11T03:27:17;-2.50;99.90
7016;DHT22;3548;48.402;9.990;2023-02-11T03:29:52;-2.50;99.90
7016;DHT22;3548;48.402;9.990;2023-02-11T03:32:31;-2.50;99.90
7016;DHT22;3548;48.402;9.990;2023-02-11T03:35:13;-2.50;99.90
7016;DHT22;3548;48.402;9.990;2023-02-11T03:37:49;-2.50;99.90
7016;DHT22;3548;48.402;9.990;2023-02-11T03:40:21;-2.50;99.90
7016;DHT22;3548;48.402;9.990;2023-02-11T03:43:07;-2.40;99.90
7016;DHT22;3548;48.402;9.990;2023-02-11T03:45:35;-2.40;99.90
7016;DHT22;3548;48.402;9.990;2023-02-11T03:48:10;-2.40;99.90
7016;DHT22;3548;48.402;9.990;2023-02-11T03:50:39;-2.30;99.90
7016;DHT22;3548;48.402;9.990;2023-02-11T03:53:06;-2.30;99.90
7016;DHT22;3548;48.402;9.990;2023-02-11T03:55:35;-2.20;99.90
7016;DHT22;3548;48.402;9.990;2023-02-11T03:58:02;-2.20;99.90
7016;DHT22;3548;48.402;9.990;2023-02-11T04:00:31;-2.20;99.90
7016;DHT22;3548;48.402;9.990;2023-02-11T04:02:57;-2.10;99.90
7016;DHT22;3548;48.402;9.990;2023-02-11T04:05:23;-2.10;99.90
7016;DHT22;3548;48.402;9.990;2023-02-11T04:07:48;-2.20;99.90
7016;DHT22;3548;48.402;9.990;2023-02-11T04:10:14;-2.20;99.90
7016;DHT22;3548;48.402;9.990;2023-02-11T04:12:39;-2.10;99.90
7016;DHT22;3548;48.402;9.990;2023-02-11T04:15:05;-2.10;99.90
7016;DHT22;3548;48.402;9.990;2023-02-11T04:17:31;-2.00;99.90
7016;DHT22;3548;48.402;9.990;2023-02-11T04:19:57;-2.00;99.90
7016;DHT22;3548;48.402;9.990;2023-02-11T04:22:22;-1.90;99.90
7016;DHT22;3548;48.402;9.990;2023-02-11T04:24:48;-2.00;99.90
7016;DHT22;3548;48.402;9.990;2023-02-11T04:27:13;-1.90;99.90
7016;DHT22;3548;48.402;9.990;2023-02-11T04:29:39;-1.90;99.90
7016;DHT22;3548;48.402;9.990;2023-02-11T04:32:04;-1.90;99.90
7016;DHT22;3548;48.402;9.990;2023-02-11T04:34:30;-1.90;99.90
7016;DHT22;3548;48.402;9.990;2023-02-11T04:36:55;-1.80;99.90
7016;DHT22;3548;48.402;9.990;2023-02-11T04:39:21;-1.80;99.90
7016;DHT22;3548;48.402;9.990;2023-02-11T04:41:46;-1.80;99.90
7016;DHT22;3548;48.402;9.990;2023-02-11T04:44:12;-1.80;99.90
7016;DHT22;3548;48.402;9.990;2023-02-11T04:46:37;-1.80;99.90
7016;DHT22;3548;48.402;9.990;2023-02-11T04:49:03;-1.80;99.90
7016;DHT22;3548;48.402;9.990;2023-02-11T04:51:29;-1.80;99.90
7016;DHT22;3548;48.402;9.990;2023-02-11T04:53:54;-1.70;99.90
7016;DHT22;3548;48.402;9.990;2023-02-11T04:56:20;-1.70;99.90
7016;DHT22;3548;48.402;9.990;2023-02-11T04:58:45;-1.70;99.90
7016;DHT22;3548;48.402;9.990;2023-02-11T05:01:13;-1.70;99.90
7016;DHT22;3548;48.402;9.990;2023-02-11T05:03:39;-1.70;99.90
7016;DHT22;3548;48.402;9.990;2023-02-11T05:06:05;-1.60;99.90
7016;DHT22;3548;48.402;9.990;2023-02-11T05:08:31;-1.50;99.90
7016;DHT22;3548;48.402;9.990;2023-02-11T05:10:57;-1.50;99.90
7016;DHT22;3548;48.402;9.990;2023-02-11T05:13:23;-1.50;99.90
7016;DHT22;3548;48.402;9.990;2023-02-11T05:15:48;-1.40;99.90
7016;DHT22;3548;48.402;9.990;2023-02-11T05:18:14;-1.40;99.90
7016;DHT22;3548;48.402;9.990;2023-02-11T05:20:41;-1.40;99.90
7016;DHT22;3548;48.402;9.990;2023-02-11T05:23:07;-1.30;99.90
7016;DHT22;3548;48.402;9.990;2023-02-11T05:25:32;-1.30;99.90
7016;DHT22;3548;48.402;9.990;2023-02-11T05:27:58;-1.30;99.90
7016;DHT22;3548;48.402;9.990;2023-02-11T05:30:24;-1.20;99.90
7016;DHT22;3548;48.402;9.990;2023-02-11T05:32:50;-1.10;99.90
7016;DHT22;3548;48.402;9.990;2023-02-11T05:35:16;-1.10;99.90
7016;DHT22;3548;48.402;9.990;2023-02-11T05:37:41;-1.10;99.90
7016;DHT22;3548;48.402;9.990;2023-02-11T05:40:07;-1.10;99.90
7016;DHT22;3548;48.402;9.990;2023-02-11T05:42:33;-1.10;99.90
7016;DHT22;3548;48.402;9.990;2023-02-11T05:44:58;-1.00;99.90
7016;DHT22;3548;48.402;9.990;2023-02-11T05:47:24;-1.00;99.90
7016;DHT22;3548;48.402;9.990;2023-02-11T05:49:50;-1.00;99.90
7016;DHT22;3548;48.402;9.990;2023-02-11T05:52:16;-1.00;99.90
7016;DHT22;3548;48.402;9.990;2023-02-11T05:54:41;-1.00;99.90
7016;DHT22;3548;48.402;9.990;2023-02-11T05:57:07;-1.00;99.90
7016;DHT22;3548;48.402;9.990;2023-02-11T05:59:32;-1.00;99.90
7016;DHT22;3548;48.402;9.990;2023-02-11T06:01:58;-1.10;99.90
7016;DHT22;3548;48.402;9.990;2023-02-11T06:04:23;-1.10;99.90
7016;DHT22;3548;48.402;9.990;2023-02-11T06:06:49;-1.10;99.90
7016;DHT22;3548;48.402;9.990;2023-02-11T06:09:14;-1.10;99.90
7016;DHT22;3548;48.402;9.990;2023-02-11T06:11:40;-1.10;99.90
7016;DHT22;3548;48.402;9.990;2023-02-11T06:14:05;-1.10;99.90
7016;DHT22;3548;48.402;9.990;2023-02-11T06:16:31;-1.10;99.90
7016;DHT22;3548;48.402;9.990;2023-02-11T06:18:57;-1.00;99.90
7016;DHT22;3548;48.402;9.990;2023-02-11T06:21:22;-0.90;99.90
7016;DHT22;3548;48.402;9.990;2023-02-11T06:23:48;-0.80;99.90
7016;DHT22;3548;48.402;9.990;2023-02-11T06:26:22;-0.80;99.90
7016;DHT22;3548;48.402;9.990;2023-02-11T06:28:48;-0.80;99.90
7016;DHT22;3548;48.402;9.990;2023-02-11T06:31:14;-0.70;99.90
7016;DHT22;3548;48.402;9.990;2023-02-11T06:33:40;-0.70;99.90
7016;DHT22;3548;48.402;9.990;2023-02-11T06:36:17;-0.70;99.90
7016;DHT22;3548;48.402;9.990;2023-02-11T06:38:43;-0.60;99.90
7016;DHT22;3548;48.402;9.990;2023-02-11T06:41:13;-0.60;99.90
7016;DHT22;3548;48.402;9.990;2023-02-11T06:43:40;-0.60;99.90
7016;DHT22;3548;48.402;9.990;2023-02-11T06:46:06;-0.60;99.90
7016;DHT22;3548;48.402;9.990;2023-02-11T06:48:33;-0.50;99.90
7016;DHT22;3548;48.402;9.990;2023-02-11T06:51:03;-0.50;99.90
7016;DHT22;3548;48.402;9.990;2023-02-11T06:53:30;-0.40;99.90
7016;DHT22;3548;48.402;9.990;2023-02-11T06:56:04;-0.30;99.90
7016;DHT22;3548;48.402;9.990;2023-02-11T06:58:30;-0.30;99.90
7016;DHT22;3548;48.402;9.990;2023-02-11T07:00:56;-0.30;99.90
7016;DHT22;3548;48.402;9.990;2023-02-11T07:03:22;-0.20;99.90
7016;DHT22;3548;48.402;9.990;2023-02-11T07:05:47;-0.20;99.90
7016;DHT22;3548;48.402;9.990;2023-02-11T07:08:13;-0.20;99.90
7016;DHT22;3548;48.402;9.990;2023-02-11T07:10:39;-0.10;99.90
7016;DHT22;3548;48.402;9.990;2023-02-11T07:13:04;-0.10;99.90
7016;DHT22;3548;48.402;9.990;2023-02-11T07:15:30;-0.10;99.90
7016;DHT22;3548;48.402;9.990;2023-02-11T07:17:56;0.00;99.90
7016;DHT22;3548;48.402;9.990;2023-02-11T07:20:21;-0.10;99.90
7016;DHT22;3548;48.402;9.990;2023-02-11T07:22:47;0.00;99.90
7016;DHT22;3548;48.402;9.990;2023-02-11T07:25:12;0.00;99.90
7016;DHT22;3548;48.402;9.990;2023-02-11T07:27:38;0.10;99.90
7016;DHT22;3548;48.402;9.990;2023-02-11T07:30:04;0.20;99.90
7016;DHT22;3548;48.402;9.990;2023-02-11T07:32:30;0.30;99.90
7016;DHT22;3548;48.402;9.990;2023-02-11T07:34:55;0.30;99.90
7016;DHT22;3548;48.402;9.990;2023-02-11T07:37:21;0.40;99.90
7016;DHT22;3548;48.402;9.990;2023-02-11T07:39:46;0.40;99.90
7016;DHT22;3548;48.402;9.990;2023-02-11T07:42:12;0.50;99.90
7016;DHT22;3548;48.402;9.990;2023-02-11T07:44:37;0.50;99.90
7016;DHT22;3548;48.402;9.990;2023-02-11T07:47:03;0.60;99.90
7016;DHT22;3548;48.402;9.990;2023-02-11T07:49:28;0.70;99.90
7016;DHT22;3548;48.402;9.990;2023-02-11T07:51:54;0.80;99.90
7016;DHT22;3548;48.402;9.990;2023-02-11T07:54:20;0.90;99.90
7016;DHT22;3548;48.402;9.990;2023-02-11T07:56:45;1.00;99.90
7016;DHT22;3548;48.402;9.990;2023-02-11T07:59:11;1.10;99.90
7016;DHT22;3548;48.402;9.990;2023-02-11T08:01:37;1.10;99.90
7016;DHT22;3548;48.402;9.990;2023-02-11T08:04:03;1.20;99.90
7016;DHT22;3548;48.402;9.990;2023-02-11T08:06:30;1.30;99.90
7016;DHT22;3548;48.402;9.990;2023-02-11T08:08:56;1.40;99.90
7016;DHT22;3548;48.402;9.990;2023-02-11T08:11:26;1.50;99.90
7016;DHT22;3548;48.402;9.990;2023-02-11T08:13:52;1.70;99.90
7016;DHT22;3548;48.402;9.990;2023-02-11T08:16:22;1.80;99.90
7016;DHT22;3548;48.402;9.990;2023-02-11T08:18:48;1.90;99.90
7016;DHT22;3548;48.402;9.990;2023-02-11T08:21:14;2.00;99.90
7016;DHT22;3548;48.402;9.990;2023-02-11T08:23:41;2.10;99.90
7016;DHT22;3548;48.402;9.990;2023-02-11T08:26:10;2.20;99.90
7016;DHT22;3548;48.402;9.990;2023-02-11T08:28:37;2.30;99.90
7016;DHT22;3548;48.402;9.990;2023-02-11T08:31:16;2.40;99.90
7016;DHT22;3548;48.402;9.990;2023-02-11T08:33:42;2.50;99.90
7016;DHT22;3548;48.402;9.990;2023-02-11T08:36:12;2.60;99.90
7016;DHT22;3548;48.402;9.990;2023-02-11T08:38:39;2.60;99.90
7016;DHT22;3548;48.402;9.990;2023-02-11T08:41:05;2.50;99.90
7016;DHT22;3548;48.402;9.990;2023-02-11T08:43:31;2.40;99.90
7016;DHT22;3548;48.402;9.990;2023-02-11T08:45:57;2.40;99.90
7016;DHT22;3548;48.402;9.990;2023-02-11T08:48:23;2.50;99.90
7016;DHT22;3548;48.402;9.990;2023-02-11T08:50:49;2.70;99.90
7016;DHT22;3548;48.402;9.990;2023-02-11T08:53:14;2.90;99.90
7016;DHT22;3548;48.402;9.990;2023-02-11T08:55:41;3.10;99.90
7016;DHT22;3548;48.402;9.990;2023-02-11T08:58:12;3.30;99.90
7016;DHT22;3548;48.402;9.990;2023-02-11T09:00:37;3.40;99.90
7016;DHT22;3548;48.402;9.990;2023-02-11T09:03:03;3.40;99.90
7016;DHT22;3548;48.402;9.990;2023-02-11T09:05:29;3.40;99.90
7016;DHT22;3548;48.402;9.990;2023-02-11T09:07:54;3.40;99.90
7016;DHT22;3548;48.402;9.990;2023-02-11T09:10:20;3.40;99.90
7016;DHT22;3548;48.402;9.990;2023-02-11T09:12:48;3.50;99.90
7016;DHT22;3548;48.402;9.990;2023-02-11T09:15:14;3.40;99.90
7016;DHT22;3548;48.402;9.990;2023-02-11T09:17:39;3.40;99.90
7016;DHT22;3548;48.402;9.990;2023-02-11T09:20:05;3.20;99.90
7016;DHT22;3548;48.402;9.990;2023-02-11T09:22:31;3.20;99.90
7016;DHT22;3548;48.402;9.990;2023-02-11T09:24:56;3.10;99.90
7016;DHT22;3548;48.402;9.990;2023-02-11T09:27:22;3.20;99.90
7016;DHT22;3548;48.402;9.990;2023-02-11T09:29:47;3.40;99.90
7016;DHT22;3548;48.402;9.990;2023-02-11T09:32:13;3.50;99.90
7016;DHT22;3548;48.402;9.990;2023-02-11T09:34:38;3.70;99.90
7016;DHT22;3548;48.402;9.990;2023-02-11T09:37:04;3.70;99.90
7016;DHT22;3548;48.402;9.990;2023-02-11T09:39:29;3.60;99.90
7016;DHT22;3548;48.402;9.990;2023-02-11T09:42:19;3.50;99.90
7016;DHT22;3548;48.402;9.990;2023-02-11T09:44:49;3.60;99.90
7016;DHT22;3548;48.402;9.990;2023-02-11T09:47:44;3.70;99.90
7016;DHT22;3548;48.402;9.990;2023-02-11T09:50:21;3.70;99.90
7016;DHT22;3548;48.402;9.990;2023-02-11T09:55:34;4.00;99.90
7016;DHT22;3548;48.402;9.990;2023-02-11T09:58:27;4.20;99.90
7016;DHT22;3548;48.402;9.990;2023-02-11T10:14:30;5.00;99.90
7016;DHT22;3548;48.402;9.990;2023-02-11T10:17:14;4.90;99.90
7016;DHT22;3548;48.402;9.990;2023-02-11T10:22:53;4.70;99.90
7016;DHT22;3548;48.402;9.990;2023-02-11T10:25:41;4.60;99.90
7016;DHT22;3548;48.402;9.990;2023-02-11T10:28:12;4.60;99.90
7016;DHT22;3548;48.402;9.990;2023-02-11T10:31:04;4.60;99.90
7016;DHT22;3548;48.402;9.990;2023-02-11T10:36:10;4.90;99.90
7016;DHT22;3548;48.402;9.990;2023-02-11T10:38:37;5.00;99.90
7016;DHT22;3548;48.402;9.990;2023-02-11T10:41:02;5.10;99.90
7016;DHT22;3548;48.402;9.990;2023-02-11T10:43:29;5.00;99.90
7016;DHT22;3548;48.402;9.990;2023-02-11T10:45:56;5.00;99.90
7016;DHT22;3548;48.402;9.990;2023-02-11T10:49:01;4.80;99.90
7016;DHT22;3548;48.402;9.990;2023-02-11T10:51:32;4.80;99.90
7016;DHT22;3548;48.402;9.990;2023-02-11T10:56:31;4.90;99.90
7016;DHT22;3548;48.402;9.990;2023-02-11T10:58:59;5.10;99.90
7016;DHT22;3548;48.402;9.990;2023-02-11T11:01:47;5.20;99.90
7016;DHT22;3548;48.402;9.990;2023-02-11T11:04:34;5.30;99.90
7016;DHT22;3548;48.402;9.990;2023-02-11T11:07:18;5.50;99.90
7016;DHT22;3548;48.402;9.990;2023-02-11T11:09:51;5.70;99.90
7016;DHT22;3548;48.402;9.990;2023-02-11T11:17:30;6.10;99.90
7016;DHT22;3548;48.402;9.990;2023-02-11T11:20:18;6.10;99.90
7016;DHT22;3548;48.402;9.990;2023-02-11T11:22:44;6.10;99.90
7016;DHT22;3548;48.402;9.990;2023-02-11T11:25:27;6.00;99.90
7016;DHT22;3548;48.402;9.990;2023-02-11T11:27:59;5.90;99.90
7016;DHT22;3548;48.402;9.990;2023-02-11T11:30:37;5.80;99.90
7016;DHT22;3548;48.402;9.990;2023-02-11T11:33:03;5.80;99.90
7016;DHT22;3548;48.402;9.990;2023-02-11T11:35:30;5.90;99.90
7016;DHT22;3548;48.402;9.990;2023-02-11T11:38:02;5.90;99.90
7016;DHT22;3548;48.402;9.990;2023-02-11T11:40:33;6.00;99.90
7016;DHT22;3548;48.402;9.990;2023-02-11T11:43:16;6.10;99.90
7016;DHT22;3548;48.402;9.990;2023-02-11T11:45:59;6.30;99.90
7016;DHT22;3548;48.402;9.990;2023-02-11T11:48:29;6.40;99.90
7016;DHT22;3548;48.402;9.990;2023-02-11T11:51:01;6.50;99.90
7016;DHT22;3548;48.402;9.990;2023-02-11T11:56:13;6.80;99.90
7016;DHT22;3548;48.402;9.990;2023-02-11T11:58:39;6.90;99.90
7016;DHT22;3548;48.402;9.990;2023-02-11T12:07:10;7.30;99.80
7016;DHT22;3548;48.402;9.990;2023-02-11T12:12:37;7.50;99.20
7016;DHT22;3548;48.402;9.990;2023-02-11T12:15:22;7.70;99.60
7016;DHT22;3548;48.402;9.990;2023-02-11T12:20:21;7.80;99.10
7016;DHT22;3548;48.402;9.990;2023-02-11T12:31:42;8.00;99.00
7016;DHT22;3548;48.402;9.990;2023-02-11T12:37:16;8.10;98.90
7016;DHT22;3548;48.402;9.990;2023-02-11T12:39:50;8.10;98.60
7016;DHT22;3548;48.402;9.990;2023-02-11T12:42:41;8.20;98.70
7016;DHT22;3548;48.402;9.990;2023-02-11T12:57:02;8.50;98.10
7016;DHT22;3548;48.402;9.990;2023-02-11T13:08:27;8.80;97.90
7016;DHT22;3548;48.402;9.990;2023-02-11T13:10:57;8.80;97.70
7016;DHT22;3548;48.402;9.990;2023-02-11T13:14:03;8.90;97.50
7016;DHT22;3548;48.402;9.990;2023-02-11T13:16:45;8.80;97.50
7016;DHT22;3548;48.402;9.990;2023-02-11T13:19:19;8.80;97.30
7016;DHT22;3548;48.402;9.990;2023-02-11T13:21:55;8.90;97.80
7016;DHT22;3548;48.402;9.990;2023-02-11T13:27:31;9.10;97.20
7016;DHT22;3548;48.402;9.990;2023-02-11T13:35:49;9.40;96.70
7016;DHT22;3548;48.402;9.990;2023-02-11T13:38:34;9.30;96.60
7016;DHT22;3548;48.402;9.990;2023-02-11T13:43:42;9.20;96.60
7016;DHT22;3548;48.402;9.990;2023-02-11T13:46:10;9.20;96.70
7016;DHT22;3548;48.402;9.990;2023-02-11T13:51:09;8.90;96.90
7016;DHT22;3548;48.402;9.990;2023-02-11T13:53:56;8.80;97.00
7016;DHT22;3548;48.402;9.990;2023-02-11T13:58:57;8.70;97.40
7016;DHT22;3548;48.402;9.990;2023-02-11T14:01:41;8.70;97.50
7016;DHT22;3548;48.402;9.990;2023-02-11T14:04:27;8.60;97.30
7016;DHT22;3548;48.402;9.990;2023-02-11T14:13:24;8.40;97.80
7016;DHT22;3548;48.402;9.990;2023-02-11T14:23:53;8.40;97.70
7016;DHT22;3548;48.402;9.990;2023-02-11T14:31:44;8.20;97.70
7016;DHT22;3548;48.402;9.990;2023-02-11T14:36:57;8.20;98.00
7016;DHT22;3548;48.402;9.990;2023-02-11T14:39:49;8.30;98.00
7016;DHT22;3548;48.402;9.990;2023-02-11T14:42:22;8.30;97.70
7016;DHT22;3548;48.402;9.990;2023-02-11T14:44:52;8.20;97.60
7016;DHT22;3548;48.402;9.990;2023-02-11T14:47:27;8.20;97.80
7016;DHT22;3548;48.402;9.990;2023-02-11T14:49:54;8.20;97.80
7016;DHT22;3548;48.402;9.990;2023-02-11T14:52:33;8.20;97.90
7016;DHT22;3548;48.402;9.990;2023-02-11T14:57:46;8.20;98.20
7016;DHT22;3548;48.402;9.990;2023-02-11T15:00:21;8.20;98.20
7016;DHT22;3548;48.402;9.990;2023-02-11T15:02:47;8.30;98.40
7016;DHT22;3548;48.402;9.990;2023-02-11T15:07:50;8.30;98.20
7016;DHT22;3548;48.402;9.990;2023-02-11T15:12:49;8.20;98.70
7016;DHT22;3548;48.402;9.990;2023-02-11T15:15:16;8.20;98.40
7016;DHT22;3548;48.402;9.990;2023-02-11T15:17:43;8.20;98.60
7016;DHT22;3548;48.402;9.990;2023-02-11T15:20:23;8.20;98.70
7016;DHT22;3548;48.402;9.990;2023-02-11T15:22:54;8.20;98.70
7016;DHT22;3548;48.402;9.990;2023-02-11T15:25:21;8.10;98.70
7016;DHT22;3548;48.402;9.990;2023-02-11T15:27:50;8.10;98.80
7016;DHT22;3548;48.402;9.990;2023-02-11T15:32:50;8.10;99.00
7016;DHT22;3548;48.402;9.990;2023-02-11T15:35:16;8.10;98.80
7016;DHT22;3548;48.402;9.990;2023-02-11T15:37:43;8.10;99.00
7016;DHT22;3548;48.402;9.990;2023-02-11T15:42:34;8.00;98.90
7016;DHT22;3548;48.402;9.990;2023-02-11T15:47:51;8.00;99.10
7016;DHT22;3548;48.402;9.990;2023-02-11T15:50:30;8.00;99.30
7016;DHT22;3548;48.402;9.990;2023-02-11T15:53:00;7.90;99.10
7016;DHT22;3548;48.402;9.990;2023-02-11T15:55:27;7.80;99.10
7016;DHT22;3548;48.402;9.990;2023-02-11T15:57:56;7.70;99.20
7016;DHT22;3548;48.402;9.990;2023-02-11T16:00:32;7.60;99.30
7016;DHT22;3548;48.402;9.990;2023-02-11T16:03:00;7.50;99.50
7016;DHT22;3548;48.402;9.990;2023-02-11T16:05:34;7.50;99.70
7016;DHT22;3548;48.402;9.990;2023-02-11T16:08:11;7.30;99.70
7016;DHT22;3548;48.402;9.990;2023-02-11T16:10:37;7.30;99.80
7016;DHT22;3548;48.402;9.990;2023-02-11T16:18:14;7.20;99.80
7016;DHT22;3548;48.402;9.990;2023-02-11T16:20:48;7.20;99.70
7016;DHT22;3548;48.402;9.990;2023-02-11T16:23:23;7.10;99.60
7016;DHT22;3548;48.402;9.990;2023-02-11T16:25:55;7.00;99.80
7016;DHT22;3548;48.402;9.990;2023-02-11T16:28:22;7.00;99.90
7016;DHT22;3548;48.402;9.990;2023-02-11T16:30:51;6.90;99.90
7016;DHT22;3548;48.402;9.990;2023-02-11T16:33:16;6.80;99.90
7016;DHT22;3548;48.402;9.990;2023-02-11T16:35:42;6.70;99.90
7016;DHT22;3548;48.402;9.990;2023-02-11T16:38:12;6.60;99.90
7016;DHT22;3548;48.402;9.990;2023-02-11T16:40:38;6.50;99.90
7016;DHT22;3548;48.402;9.990;2023-02-11T16:43:04;6.40;99.90
7016;DHT22;3548;48.402;9.990;2023-02-11T16:45:29;6.30;99.90
7016;DHT22;3548;48.402;9.990;2023-02-11T16:47:56;6.30;99.90
7016;DHT22;3548;48.402;9.990;2023-02-11T16:50:24;6.20;99.90
7016;DHT22;3548;48.402;9.990;2023-02-11T16:52:50;6.10;99.90
7016;DHT22;3548;48.402;9.990;2023-02-11T16:55:17;6.00;99.90
7016;DHT22;3548;48.402;9.990;2023-02-11T16:57:42;6.00;99.90
7016;DHT22;3548;48.402;9.990;2023-02-11T17:00:16;5.90;99.90
7016;DHT22;3548;48.402;9.990;2023-02-11T17:02:41;5.90;99.90
7016;DHT22;3548;48.402;9.990;2023-02-11T17:05:15;5.80;99.90
7016;DHT22;3548;48.402;9.990;2023-02-11T17:07:41;5.70;99.90
7016;DHT22;3548;48.402;9.990;2023-02-11T17:10:15;5.70;99.90
7016;DHT22;3548;48.402;9.990;2023-02-11T17:12:40;5.70;99.90
7016;DHT22;3548;48.402;9.990;2023-02-11T17:15:06;5.70;99.90
7016;DHT22;3548;48.402;9.990;2023-02-11T17:17:32;5.70;99.90
7016;DHT22;3548;48.402;9.990;2023-02-11T17:19:57;5.70;99.90
7016;DHT22;3548;48.402;9.990;2023-02-11T17:22:23;5.70;99.90
7016;DHT22;3548;48.402;9.990;2023-02-11T17:24:48;5.70;99.90
7016;DHT22;3548;48.402;9.990;2023-02-11T17:27:14;5.70;99.90
7016;DHT22;3548;48.402;9.990;2023-02-11T17:29:40;5.70;99.90
7016;DHT22;3548;48.402;9.990;2023-02-11T17:32:05;5.70;99.90
7016;DHT22;3548;48.402;9.990;2023-02-11T17:34:31;5.70;99.90
7016;DHT22;3548;48.402;9.990;2023-02-11T17:36:56;5.70;99.90
7016;DHT22;3548;48.402;9.990;2023-02-11T17:39:23;5.70;99.90
7016;DHT22;3548;48.402;9.990;2023-02-11T17:41:50;5.70;99.90
7016;DHT22;3548;48.402;9.990;2023-02-11T17:44:15;5.70;99.90
7016;DHT22;3548;48.402;9.990;2023-02-11T17:46:41;5.70;99.90
7016;DHT22;3548;48.402;9.990;2023-02-11T17:49:07;5.60;99.90
7016;DHT22;3548;48.402;9.990;2023-02-11T17:51:37;5.60;99.90
7016;DHT22;3548;48.402;9.990;2023-02-11T17:54:05;5.60;99.90
7016;DHT22;3548;48.402;9.990;2023-02-11T17:56:32;5.50;99.90
7016;DHT22;3548;48.402;9.990;2023-02-11T17:58:58;5.50;99.90
7016;DHT22;3548;48.402;9.990;2023-02-11T18:01:30;5.50;99.90
7016;DHT22;3548;48.402;9.990;2023-02-11T18:03:56;5.40;99.90
7016;DHT22;3548;48.402;9.990;2023-02-11T18:06:22;5.40;99.90
7016;DHT22;3548;48.402;9.990;2023-02-11T18:08:47;5.40;99.90
7016;DHT22;3548;48.402;9.990;2023-02-11T18:11:14;5.40;99.90
7016;DHT22;3548;48.402;9.990;2023-02-11T18:13:41;5.40;99.90
7016;DHT22;3548;48.402;9.990;2023-02-11T18:16:06;5.30;99.90
7016;DHT22;3548;48.402;9.990;2023-02-11T18:18:40;5.30;99.90
7016;DHT22;3548;48.402;9.990;2023-02-11T18:21:06;5.30;99.90
7016;DHT22;3548;48.402;9.990;2023-02-11T18:23:34;5.30;99.90
7016;DHT22;3548;48.402;9.990;2023-02-11T18:26:00;5.30;99.90
7016;DHT22;3548;48.402;9.990;2023-02-11T18:28:27;5.30;99.90
7016;DHT22;3548;48.402;9.990;2023-02-11T18:30:57;5.30;99.90
7016;DHT22;3548;48.402;9.990;2023-02-11T18:33:23;5.30;99.90
7016;DHT22;3548;48.402;9.990;2023-02-11T18:35:49;5.20;99.90
7016;DHT22;3548;48.402;9.990;2023-02-11T18:38:15;5.20;99.90
7016;DHT22;3548;48.402;9.990;2023-02-11T18:40:40;5.20;99.90
7016;DHT22;3548;48.402;9.990;2023-02-11T18:43:06;5.10;99.90
7016;DHT22;3548;48.402;9.990;2023-02-11T18:45:31;5.10;99.90
7016;DHT22;3548;48.402;9.990;2023-02-11T18:47:57;5.00;99.90
7016;DHT22;3548;48.402;9.990;2023-02-11T18:50:26;5.00;99.90
7016;DHT22;3548;48.402;9.990;2023-02-11T18:52:51;4.90;99.90
7016;DHT22;3548;48.402;9.990;2023-02-11T18:55:17;4.90;99.90
7016;DHT22;3548;48.402;9.990;2023-02-11T18:57:44;4.90;99.90
7016;DHT22;3548;48.402;9.990;2023-02-11T19:00:11;4.90;99.90
7016;DHT22;3548;48.402;9.990;2023-02-11T19:02:36;4.90;99.90
7016;DHT22;3548;48.402;9.990;2023-02-11T19:05:03;4.90;99.90
7016;DHT22;3548;48.402;9.990;2023-02-11T19:07:30;4.90;99.90
7016;DHT22;3548;48.402;9.990;2023-02-11T19:09:56;4.90;99.90
7016;DHT22;3548;48.402;9.990;2023-02-11T19:12:22;4.90;99.90